KHWD/HWD METAR and TAF weather

Enter ICAO airport designator
Station Type Date Time Source
KHWD METAR 2019/06/27 03:54 UTC NOAA

KHWD 270354Z 27010KT 10SM BKN017 16/12 A3004 RMK AO2 SLP182 T01610117


Station Type Date Time Source
KHWD Decoded METAR 2019/06/27 03:54 UTC NOAA

HAYWARD AIR TERMINAL, CA, United States (KHWD) 37-40N 122-07W 21M
Jun 26, 2019 - 11:54 PM EDT / 2019.06.27 0354 UTC
Wind: from the W (270 degrees) at 12 MPH (10 KT):0
Visibility: 10 mile(s):0
Sky conditions: mostly cloudy
Temperature: 61.0 F (16.1 C)
Dew Point: 53.1 F (11.7 C)
Relative Humidity: 75%
Pressure (altimeter): 30.04 in. Hg (1017 hPa)
ob: KHWD 270354Z 27010KT 10SM BKN017 16/12 A3004 RMK AO2 SLP182 T01610117
cycle: 4

Station Type Date Time Source
KHWD TAF UTC NOAA

Error!

Example: see airport list